< Typhoon 195105 1951 Season Typhoon 195107 >
Typhoon 195106 (KATE)
General InformationTrack Information on Google Maps || Disaster Info.ResourceGoogle EarthGE AnimationAtom FeedGeoJSON
Detalied Best Track (Time Zone = UTC)
Year Month Day Hour Lat. Long. Pressure (hPa) Wind (kt) Class Image Chart
1951 6 26 06 11.0 135.0 1006 0 2 -- Chart
1951 6 26 12 11.5 134.0 1006 0 2 -- Chart
1951 6 26 18 12.0 133.0 1005 0 2 -- Chart
1951 6 27 00 12.7 132.1 1004 0 2 -- Chart
1951 6 27 06 13.5 131.1 1003 0 2 -- Chart
1951 6 27 12 14.0 130.0 1002 0 2 -- Chart
1951 6 27 18 14.8 129.0 1001 0 2 -- Chart
1951 6 28 00 15.6 128.0 1000 0 2 -- Chart
1951 6 28 06 16.3 127.7 999 0 2 -- Chart
1951 6 28 12 17.0 127.4 998 0 2 -- Chart
1951 6 28 18 17.9 127.2 996 0 2 -- Chart
1951 6 29 00 18.5 127.1 995 0 2 -- Chart
1951 6 29 06 19.3 126.9 994 0 9 -- Chart
1951 6 29 12 21.2 126.9 992 0 9 -- Chart
1951 6 29 18 22.6 128.0 990 0 9 -- Chart
1951 6 30 00 23.7 128.9 990 0 9 -- Chart
1951 6 30 06 25.0 129.3 988 0 9 -- Chart
1951 6 30 12 26.7 129.8 986 0 9 -- Chart
1951 6 30 18 28.0 130.6 983 0 9 -- Chart
1951 7 1 00 29.7 131.0 980 0 9 -- Chart
1951 7 1 06 31.2 131.6 975 0 9 -- Chart
1951 7 1 12 32.5 132.5 976 0 9 -- Chart
1951 7 1 18 33.8 133.8 985 0 9 -- Chart
1951 7 2 00 34.8 135.0 993 0 9 -- Chart
1951 7 2 06 35.0 137.5 995 0 9 -- Chart
1951 7 2 12 34.6 138.6 1000 0 2 -- Chart
1951 7 2 18 36.0 146.0 996 0 2 -- Chart
1951 7 3 00 35.7 149.2 996 0 6 -- Chart
1951 7 3 06 36.2 153.7 996 0 6 -- Chart
Japan Meteorological Agency Best Track Data | Correction Date : 1989-06-01
< Typhoon 195105 1951 Season Typhoon 195107 >

Help